Pacu — WDH2419 — position and weather

sailwx.info

Track history (hours):
 
Tides and Currents Weather Stations Pressure Air Temp Water Temp Dewpoint Dewpoint Depression Visibility Wind Speed Wind Dir Waves Ship Positions

Pacu

Owner: Florin, Juan M, Woodstock, VT. More information available from US FCC via Universal Licensing System and Coast Guard Vessel Documentation Center.

Last reported at 2018-Apr-03 15:50 UTC. Time now 2018-Apr-20 01:28 UTC.
Position N 24°58' W 076°14'.
Warning: this ship's position is 16 days out of date.

Length 17 m.

Type: Sailing vessel. MMSI: 367597380.

Date/timePositionNaut miles runAvg speedWind from/ knotsBaromVisibWave heightAir tempDewpointWater temp
2018-Apr-03 15:50N 24°58' W 076°14'2 7.0
2018-Apr-03 15:30N 25°00' W 076°15'8 6.7
2018-Apr-03 14:21N 25°08' W 076°17'2 6.3
2018-Apr-03 14:00N 25°10' W 076°18'3 6.4
2018-Apr-03 13:30N 25°13' W 076°19'3 5.6
2018-Apr-03 13:00N 25°16' W 076°19'0 0.0
2018-Apr-02 19:05N 25°16' W 076°19'0 0.2
2018-Apr-02 18:59N 25°16' W 076°19'2 4.9
2018-Apr-02 18:30N 25°17' W 076°22'3 5.9
2018-Apr-02 18:00N 25°18' W 076°25'3 5.8
2018-Apr-02 17:30N 25°18' W 076°28'3 5.9
2018-Apr-02 17:00N 25°19' W 076°31'  
Track history (hours):
 
Tides and Currents Weather Stations Pressure Air Temp Water Temp Dewpoint Dewpoint Depression Visibility Wind Speed Wind Dir Waves Ship Positions

Pacu

Owner: Florin, Juan M, Woodstock, VT. More information available from US FCC via Universal Licensing System and Coast Guard Vessel Documentation Center.

Last reported at 2018-Apr-03 15:50 UTC. Time now 2018-Apr-20 01:28 UTC.
Position N 24°58' W 076°14'.
Warning: this ship's position is 16 days out of date.

Length 17 m.

Type: Sailing vessel. MMSI: 367597380.

Date/timePositionNaut miles runAvg speedWind from/ knotsBaromVisibWave heightAir tempDewpointWater temp
2018-Apr-03 15:50N 24°58' W 076°14'2 7.0
2018-Apr-03 15:30N 25°00' W 076°15'8 6.7
2018-Apr-03 14:21N 25°08' W 076°17'2 6.3
2018-Apr-03 14:00N 25°10' W 076°18'3 6.4
2018-Apr-03 13:30N 25°13' W 076°19'3 5.6
2018-Apr-03 13:00N 25°16' W 076°19'0 0.0
2018-Apr-02 19:05N 25°16' W 076°19'0 0.2
2018-Apr-02 18:59N 25°16' W 076°19'2 4.9
2018-Apr-02 18:30N 25°17' W 076°22'3 5.9
2018-Apr-02 18:00N 25°18' W 076°25'3 5.8
2018-Apr-02 17:30N 25°18' W 076°28'3 5.9
2018-Apr-02 17:00N 25°19' W 076°31'  

Dump ship's entire track history